Time;durP1;ratioP1;P1;durP2;ratioP2;P2;SDS_P1;SDS_P2;PMS_P1;PMS_P2;Temp;Humidity;BMP_temperature;BMP_pressure;BME280_temperature;BME280_humidity;BME280_pressure;Samples;Min_cycle;Max_cycle;Signal;HPM_P1;HPM_P2
2021/11/20 00:00:53;;;;;;;9.00;5.20;;;12.90;99.90;;;;;;6182544;23;20701;-69
2021/11/20 00:03:18;;;;;;;10.27;4.10;;;12.90;99.90;;;;;;6178486;23;20662;-69
2021/11/20 00:05:50;;;;;;;13.73;4.30;;;12.90;99.90;;;;;;6182346;23;20895;-69
2021/11/20 00:08:15;;;;;;;6.53;4.33;;;12.90;99.90;;;;;;6184038;23;20196;-69
2021/11/20 00:10:44;;;;;;;530.60;478.15;;;12.90;99.90;;;;;;6184820;23;20982;-69
2021/11/20 00:13:10;;;;;;;;;;;12.90;99.90;;;;;;6182579;23;20708;-69
2021/11/20 00:15:37;;;;;;;;;;;12.90;99.90;;;;;;6186489;23;19967;-69
2021/11/20 00:18:04;;;;;;;9.82;4.53;;;13.00;99.90;;;;;;6184905;23;20676;-69
2021/11/20 00:20:32;;;;;;;8.77;3.77;;;13.10;99.90;;;;;;6186778;23;20512;-69
2021/11/20 00:22:59;;;;;;;111.07;93.87;;;13.10;99.90;;;;;;6184037;23;20708;-69
2021/11/20 00:25:32;;;;;;;30.67;19.60;;;13.10;99.90;;;;;;6183196;23;20529;-69
2021/11/20 00:28:00;;;;;;;7.80;3.60;;;13.10;99.90;;;;;;6183322;23;20933;-70
2021/11/20 00:30:40;;;;;;;6.17;3.40;;;13.00;99.90;;;;;;6187909;23;20576;-69
2021/11/20 00:33:08;;;;;;;8.60;3.30;;;12.90;99.90;;;;;;6181669;23;20957;-69
2021/11/20 00:35:38;;;;;;;51.57;46.63;;;12.90;99.90;;;;;;6180245;23;20618;-69
2021/11/20 00:38:06;;;;;;;8.10;3.47;;;12.90;99.90;;;;;;6182967;23;20595;-69
2021/11/20 00:40:39;;;;;;;6.70;2.83;;;12.90;99.90;;;;;;6185163;23;20541;-69
2021/11/20 00:43:05;;;;;;;7.53;3.43;;;12.80;99.90;;;;;;6185569;23;20599;-69
2021/11/20 00:45:32;;;;;;;349.37;312.40;;;12.80;99.90;;;;;;6179675;23;21248;-69
2021/11/20 00:47:58;;;;;;;589.60;542.70;;;12.80;99.90;;;;;;6182820;23;24391;-69
2021/11/20 00:50:25;;;;;;;541.95;495.98;;;12.80;99.90;;;;;;6179702;23;24431;-69
2021/11/20 00:52:51;;;;;;;628.33;579.00;;;12.90;99.90;;;;;;6179222;23;24451;-69
2021/11/20 00:55:24;;;;;;;271.67;259.90;;;12.90;99.90;;;;;;6180858;23;24474;-69
2021/11/20 00:57:51;;;;;;;20.83;19.33;;;13.00;99.90;;;;;;6177879;23;20623;-69
2021/11/20 01:00:20;;;;;;;364.57;330.47;;;13.00;99.90;;;;;;6177615;23;20587;-69
2021/11/20 01:02:46;;;;;;;286.63;210.83;;;12.90;99.90;;;;;;6176853;23;20616;-69
2021/11/20 01:05:14;;;;;;;38.13;34.10;;;12.90;99.90;;;;;;6175269;23;24833;-69
2021/11/20 01:07:39;;;;;;;4.90;3.10;;;12.90;99.90;;;;;;6178914;23;20180;-69
2021/11/20 01:10:09;;;;;;;6.43;3.03;;;12.90;99.90;;;;;;6178780;23;20568;-69
2021/11/20 01:12:36;;;;;;;9.07;3.70;;;12.90;99.90;;;;;;6177851;23;20275;-69
2021/11/20 01:15:08;;;;;;;7.50;3.57;;;12.90;99.90;;;;;;6177042;23;21136;-69
2021/11/20 01:17:35;;;;;;;9.53;4.70;;;12.90;99.90;;;;;;6179984;23;20505;-70
2021/11/20 01:20:03;;;;;;;295.77;215.07;;;12.90;99.90;;;;;;6177170;23;20567;-69
2021/11/20 01:22:29;;;;;;;17.90;16.45;;;12.80;99.90;;;;;;6199730;23;24376;-69
2021/11/20 01:24:56;;;;;;;5.10;3.13;;;12.80;99.90;;;;;;6179156;23;20157;-70
2021/11/20 01:27:23;;;;;;;4.90;2.93;;;12.90;99.90;;;;;;6177427;23;20668;-70
2021/11/20 01:29:51;;;;;;;6.20;3.03;;;12.80;99.90;;;;;;6177803;23;20546;-70
2021/11/20 01:32:17;;;;;;;6.50;3.90;;;12.90;99.90;;;;;;6177480;23;21261;-70
2021/11/20 01:34:45;;;;;;;10.60;3.53;;;12.80;99.90;;;;;;6179219;23;21044;-68
2021/11/20 01:37:14;;;;;;;7.63;3.10;;;12.80;99.90;;;;;;6179687;23;20656;-69
2021/11/20 01:39:41;;;;;;;6.40;3.60;;;12.80;99.90;;;;;;6177765;23;20524;-69
2021/11/20 01:42:14;;;;;;;7.40;3.17;;;12.70;99.90;;;;;;6177561;23;20588;-68
2021/11/20 01:44:58;;;;;;;8.40;3.60;;;12.70;99.90;;;;;;6179101;23;20489;-69
2021/11/20 01:47:28;;;;;;;7.30;3.60;;;12.70;99.90;;;;;;6177685;23;21172;-69
2021/11/20 01:50:04;;;;;;;5.97;3.50;;;12.70;99.90;;;;;;6179976;23;20548;-69
2021/11/20 01:52:42;;;;;;;7.97;4.17;;;12.70;99.90;;;;;;6176056;23;20951;-68
2021/11/20 01:55:24;;;;;;;5.43;4.40;;;12.80;99.90;;;;;;6177899;23;20620;-69
2021/11/20 01:58:03;;;;;;;6.70;4.37;;;12.70;99.90;;;;;;6178111;23;20544;-69
2021/11/20 02:00:41;;;;;;;5.63;4.20;;;12.70;99.90;;;;;;6177157;23;20493;-69
2021/11/20 02:03:28;;;;;;;7.50;4.53;;;12.70;99.90;;;;;;6180855;23;21183;-69
2021/11/20 02:06:21;;;;;;;9.53;4.73;;;12.70;99.90;;;;;;6178203;23;20591;-69
2021/11/20 02:09:19;;;;;;;35.10;26.47;;;12.60;99.90;;;;;;6178865;23;20501;-68
2021/11/20 02:11:57;;;;;;;7.90;4.30;;;12.60;99.90;;;;;;6177511;23;20697;-69
2021/11/20 02:14:24;;;;;;;9.10;4.50;;;12.50;99.90;;;;;;6179062;23;20503;-69
2021/11/20 02:17:09;;;;;;;6.60;4.00;;;12.50;99.90;;;;;;6176509;23;20867;-70
2021/11/20 02:19:40;;;;;;;6.60;4.60;;;12.60;99.90;;;;;;6177062;23;21107;-69
2021/11/20 02:22:31;;;;;;;12.80;5.20;;;12.60;99.90;;;;;;6178306;23;20600;-68
2021/11/20 02:24:57;;;;;;;11.77;5.10;;;12.60;99.90;;;;;;6178265;23;20637;-69
2021/11/20 02:27:22;;;;;;;8.50;5.17;;;12.60;99.90;;;;;;6175999;23;21109;-69
2021/11/20 02:29:48;;;;;;;10.27;4.90;;;12.50;99.90;;;;;;6178618;23;20164;-69
2021/11/20 02:32:18;;;;;;;13.87;5.10;;;12.60;99.90;;;;;;6176346;23;20205;-69
2021/11/20 02:34:45;;;;;;;12.57;5.60;;;12.60;99.90;;;;;;6178068;23;20158;-69
2021/11/20 02:37:11;;;;;;;7.70;6.10;;;12.60;99.90;;;;;;6179492;23;20563;-69
2021/11/20 02:39:38;;;;;;;7.90;5.70;;;12.50;99.90;;;;;;6177483;23;20567;-69
2021/11/20 02:42:07;;;;;;;11.97;4.93;;;12.60;99.90;;;;;;6176602;23;21156;-69
2021/11/20 02:44:34;;;;;;;8.03;4.93;;;12.60;99.90;;;;;;6176339;23;20606;-69
2021/11/20 02:47:03;;;;;;;15.20;6.00;;;12.50;99.90;;;;;;6179274;23;20540;-69
2021/11/20 02:49:30;;;;;;;13.40;6.20;;;12.50;99.90;;;;;;6178523;23;20535;-69
2021/11/20 02:52:04;;;;;;;86.70;65.03;;;12.50;99.90;;;;;;6175827;23;20658;-69
2021/11/20 02:54:31;;;;;;;60.23;47.37;;;12.50;99.90;;;;;;6179420;23;21002;-69
2021/11/20 02:57:07;;;;;;;28.00;24.83;;;12.50;99.90;;;;;;6176099;23;20581;-69
2021/11/20 02:59:35;;;;;;;12.50;6.00;;;12.50;99.90;;;;;;6178234;23;20504;-69
2021/11/20 03:02:01;;;;;;;8.20;5.80;;;12.50;99.90;;;;;;6177374;23;20604;-69
2021/11/20 03:04:28;;;;;;;62.97;41.03;;;12.50;99.90;;;;;;6178015;23;20541;-69
2021/11/20 03:06:55;;;;;;;11.33;6.23;;;12.50;99.90;;;;;;6179572;23;20610;-69
2021/11/20 03:09:24;;;;;;;11.00;5.90;;;12.50;99.90;;;;;;6178401;23;20921;-69
2021/11/20 03:11:50;;;;;;;10.43;5.77;;;12.50;99.90;;;;;;6177503;23;21254;-69
2021/11/20 03:14:17;;;;;;;8.13;4.90;;;12.50;99.90;;;;;;6176574;23;20584;-69
2021/11/20 03:16:55;;;;;;;10.30;4.63;;;12.50;99.90;;;;;;6178970;23;20544;-69
2021/11/20 03:19:23;;;;;;;6.07;4.57;;;12.50;99.90;;;;;;6176100;23;20642;-69
2021/11/20 03:21:54;;;;;;;7.50;4.00;;;12.50;99.90;;;;;;6176055;23;21156;-69
2021/11/20 03:24:21;;;;;;;8.20;4.90;;;12.50;99.90;;;;;;6175850;23;20592;-69
2021/11/20 03:26:48;;;;;;;19.00;13.70;;;12.50;99.90;;;;;;6202139;23;20614;-69
2021/11/20 03:29:13;;;;;;;7.63;4.90;;;12.50;99.90;;;;;;6178646;23;21064;-69
2021/11/20 03:31:40;;;;;;;9.27;5.00;;;12.50;99.90;;;;;;6178760;23;20603;-69
2021/11/20 03:34:07;;;;;;;8.53;4.70;;;12.50;99.90;;;;;;6175617;23;20313;-68
2021/11/20 03:36:34;;;;;;;10.90;5.63;;;12.60;99.90;;;;;;6175833;23;20746;-68
2021/11/20 03:39:02;;;;;;;9.53;5.27;;;12.60;99.90;;;;;;6179602;23;20579;-68
2021/11/20 03:41:28;;;;;;;9.53;5.87;;;12.50;99.90;;;;;;6179473;23;20596;-70
2021/11/20 03:43:54;;;;;;;14.00;6.40;;;12.50;99.90;;;;;;6179219;23;20777;-69
2021/11/20 03:46:20;;;;;;;10.90;6.47;;;12.60;99.90;;;;;;6177351;23;20165;-68
2021/11/20 03:48:45;;;;;;;12.13;6.00;;;12.60;99.90;;;;;;6180618;23;20157;-68
2021/11/20 03:51:11;;;;;;;13.23;6.37;;;12.50;99.90;;;;;;6180147;23;20216;-67
2021/11/20 03:53:36;;;;;;;9.87;6.87;;;12.50;99.90;;;;;;6178944;23;20648;-68
2021/11/20 03:56:03;;;;;;;14.13;6.97;;;12.60;99.90;;;;;;6183554;23;20619;-68
2021/11/20 03:58:29;;;;;;;10.57;7.10;;;12.50;99.90;;;;;;6181806;23;20190;-68
2021/11/20 04:01:01;;;;;;;11.80;6.70;;;12.60;99.90;;;;;;6181534;23;20592;-68
2021/11/20 04:03:27;;;;;;;13.10;7.57;;;12.60;99.90;;;;;;6180935;23;20260;-68
2021/11/20 04:05:55;;;;;;;10.67;6.90;;;12.60;99.90;;;;;;6182825;23;20525;-68
2021/11/20 04:08:21;;;;;;;11.47;6.30;;;12.60;99.90;;;;;;6183907;23;20548;-69
2021/11/20 04:10:50;;;;;;;10.47;6.50;;;12.60;99.90;;;;;;6184569;23;20611;-68
2021/11/20 04:13:17;;;;;;;8.83;5.90;;;12.60;99.90;;;;;;6187576;23;20600;-69
2021/11/20 04:15:44;;;;;;;17.80;8.70;;;12.60;99.90;;;;;;6185540;23;21017;-69
2021/11/20 04:18:11;;;;;;;11.80;7.17;;;12.60;99.90;;;;;;6183192;23;20545;-69
2021/11/20 04:20:37;;;;;;;8.50;6.40;;;12.60;99.90;;;;;;6181610;23;21028;-68
2021/11/20 04:23:05;;;;;;;16.50;6.67;;;12.60;99.90;;;;;;6179338;23;20610;-69
2021/11/20 04:25:32;;;;;;;13.60;6.60;;;12.50;99.90;;;;;;6179913;23;20590;-69
2021/11/20 04:27:58;;;;;;;194.77;135.23;;;12.50;99.90;;;;;;6177443;23;20575;-69
2021/11/20 04:30:24;;;;;;;15.80;6.00;;;12.50;99.90;;;;;;6180060;23;20655;-69
2021/11/20 04:32:51;;;;;;;74.50;57.97;;;12.50;99.90;;;;;;6178620;23;20275;-69
2021/11/20 04:35:18;;;;;;;352.17;205.60;;;12.50;99.90;;;;;;6181021;23;20551;-69
2021/11/20 04:37:45;;;;;;;547.38;501.25;;;12.50;99.90;;;;;;6175847;23;24380;-69
2021/11/20 04:40:11;;;;;;;10.87;6.07;;;12.50;99.90;;;;;;6179292;23;20248;-70
2021/11/20 04:42:39;;;;;;;11.17;7.63;;;12.60;99.90;;;;;;6177055;23;20998;-68
2021/11/20 04:45:08;;;;;;;13.40;7.67;;;12.60;99.90;;;;;;6177627;23;20525;-69
2021/11/20 04:47:34;;;;;;;15.43;9.67;;;12.60;99.90;;;;;;6180107;23;20620;-69
2021/11/20 04:50:00;;;;;;;14.40;8.20;;;12.60;99.90;;;;;;6180345;23;21095;-69
2021/11/20 04:52:26;;;;;;;21.13;10.57;;;12.50;99.90;;;;;;6179291;23;20259;-69
2021/11/20 04:54:53;;;;;;;13.07;9.03;;;12.50;99.90;;;;;;6177975;23;20615;-69
2021/11/20 04:57:18;;;;;;;18.77;8.93;;;12.40;99.90;;;;;;6180042;23;20951;-69
2021/11/20 04:59:47;;;;;;;17.23;9.50;;;12.40;99.90;;;;;;6178093;23;20539;-69
2021/11/20 05:02:13;;;;;;;15.37;8.80;;;12.50;99.90;;;;;;6177048;23;20208;-69
2021/11/20 05:04:39;;;;;;;14.17;8.53;;;12.50;99.90;;;;;;6202599;23;20551;-69
2021/11/20 05:07:05;;;;;;;61.07;46.53;;;12.50;99.90;;;;;;6179460;23;20541;-69
2021/11/20 05:09:32;;;;;;;24.47;16.53;;;12.50;99.90;;;;;;6180557;23;20858;-69
2021/11/20 05:11:58;;;;;;;12.23;8.80;;;12.50;99.90;;;;;;6179462;23;20963;-69
2021/11/20 05:14:24;;;;;;;17.10;9.00;;;12.60;99.90;;;;;;6179708;23;20533;-69
2021/11/20 05:16:50;;;;;;;17.77;8.33;;;12.60;99.90;;;;;;6179906;23;20919;-69
2021/11/20 05:19:16;;;;;;;14.40;8.20;;;12.50;99.90;;;;;;6180086;23;20624;-69
2021/11/20 05:21:42;;;;;;;13.33;8.30;;;12.60;99.90;;;;;;6179570;23;20250;-69
2021/11/20 05:24:08;;;;;;;18.47;8.33;;;12.60;99.90;;;;;;6180329;23;20622;-69
2021/11/20 05:26:34;;;;;;;16.17;8.40;;;12.60;99.90;;;;;;6179591;23;20160;-69
2021/11/20 05:29:07;;;;;;;14.70;8.17;;;12.60;99.90;;;;;;6179310;23;20531;-69
2021/11/20 05:31:35;;;;;;;19.53;8.93;;;12.50;99.90;;;;;;6177661;23;20207;-69
2021/11/20 05:34:01;;;;;;;15.37;8.63;;;12.50;99.90;;;;;;6180315;23;20564;-69
2021/11/20 05:36:30;;;;;;;9.77;8.23;;;12.50;99.90;;;;;;6181727;23;20624;-69
2021/11/20 05:38:59;;;;;;;12.73;8.20;;;12.50;99.90;;;;;;6177764;23;20660;-69
2021/11/20 05:41:27;;;;;;;11.03;7.70;;;12.50;99.90;;;;;;6179702;23;20658;-69
2021/11/20 05:43:53;;;;;;;16.27;11.13;;;12.50;99.90;;;;;;6176116;23;20540;-69
2021/11/20 05:46:22;;;;;;;17.67;10.33;;;12.50;99.90;;;;;;6178088;23;20583;-69
2021/11/20 05:48:47;;;;;;;16.27;8.70;;;12.50;99.90;;;;;;6180802;23;20607;-69
2021/11/20 05:51:14;;;;;;;14.63;9.10;;;12.40;99.90;;;;;;6180565;23;20662;-69
2021/11/20 05:53:40;;;;;;;17.50;9.90;;;12.40;99.90;;;;;;6181021;23;20160;-69
2021/11/20 05:56:06;;;;;;;11.77;9.00;;;12.40;99.90;;;;;;6181330;23;20528;-69
2021/11/20 05:58:32;;;;;;;13.20;9.40;;;12.40;99.90;;;;;;6180513;23;21524;-68
2021/11/20 06:01:02;;;;;;;422.73;363.13;;;12.40;99.90;;;;;;6180304;23;20628;-68
2021/11/20 06:03:28;;;;;;;12.90;8.67;;;12.40;99.90;;;;;;6177769;23;20615;-68
2021/11/20 06:05:55;;;;;;;14.10;9.03;;;12.50;99.90;;;;;;6181908;23;20599;-68
2021/11/20 06:08:22;;;;;;;13.10;9.10;;;12.40;99.90;;;;;;6203885;23;20576;-68
2021/11/20 06:10:51;;;;;;;14.10;8.73;;;12.40;99.90;;;;;;6181125;23;20587;-68
2021/11/20 06:13:17;;;;;;;11.50;8.53;;;12.50;99.90;;;;;;6178656;23;20608;-69
2021/11/20 06:15:43;;;;;;;11.90;7.90;;;12.50;99.90;;;;;;6181153;23;20911;-68
2021/11/20 06:18:10;;;;;;;14.80;8.30;;;12.50;99.90;;;;;;6179723;23;20165;-68
2021/11/20 06:20:39;;;;;;;12.20;8.77;;;12.50;99.90;;;;;;6181201;23;20610;-69
2021/11/20 06:23:05;;;;;;;12.43;8.00;;;12.50;99.90;;;;;;6178288;23;20945;-69
2021/11/20 06:25:31;;;;;;;13.37;9.13;;;12.50;99.90;;;;;;6180382;23;20540;-69
2021/11/20 06:27:57;;;;;;;10.07;7.07;;;12.50;99.90;;;;;;6177202;23;20577;-69
2021/11/20 06:30:25;;;;;;;15.90;8.50;;;12.50;99.90;;;;;;6178857;23;20587;-69
2021/11/20 06:32:52;;;;;;;11.17;8.07;;;12.50;99.90;;;;;;6177744;23;20602;-68
2021/11/20 06:35:22;;;;;;;13.53;9.40;;;12.50;99.90;;;;;;6180218;23;20606;-70
2021/11/20 06:37:48;;;;;;;11.20;8.53;;;12.50;99.90;;;;;;6178258;23;20556;-69
2021/11/20 06:40:26;;;;;;;13.37;8.47;;;12.50;99.90;;;;;;6178336;23;20627;-69
2021/11/20 06:42:54;;;;;;;12.97;8.03;;;12.50;99.90;;;;;;6177991;23;20607;-69
2021/11/20 06:45:24;;;;;;;13.83;9.07;;;12.50;99.90;;;;;;6178795;23;20525;-69
2021/11/20 06:47:51;;;;;;;9.57;7.23;;;12.50;99.90;;;;;;6180003;23;20679;-68
2021/11/20 06:50:18;;;;;;;15.83;8.80;;;12.50;99.90;;;;;;6178938;23;20607;-69
2021/11/20 06:52:44;;;;;;;11.80;8.63;;;12.50;99.90;;;;;;6180291;23;20947;-69
2021/11/20 06:55:12;;;;;;;11.10;8.03;;;12.40;99.90;;;;;;6176368;23;20568;-68
2021/11/20 07:00:27;;;;;;;11.30;8.37;;;12.40;99.90;;;;;;6179746;23;20548;-70
2021/11/20 07:02:59;;;;;;;15.60;9.23;;;12.40;99.90;;;;;;6177007;23;20615;-69
2021/11/20 07:05:27;;;;;;;13.80;9.50;;;12.40;99.90;;;;;;6179118;23;20557;-69
2021/11/20 07:07:54;;;;;;;16.70;8.20;;;12.40;99.90;;;;;;6180675;23;20568;-69
2021/11/20 07:10:23;;;;;;;13.27;9.00;;;12.40;99.90;;;;;;6177055;23;20573;-69
2021/11/20 07:12:52;;;;;;;11.17;8.70;;;12.40;99.90;;;;;;6179423;23;20599;-69
2021/11/20 07:15:18;;;;;;;11.77;8.40;;;12.40;99.90;;;;;;6179420;23;20667;-69
2021/11/20 07:17:44;;;;;;;14.83;9.73;;;12.30;99.90;;;;;;6179078;23;21101;-69
2021/11/20 07:20:10;;;;;;;11.60;9.80;;;12.40;99.90;;;;;;6176842;23;20599;-69
2021/11/20 07:22:36;;;;;;;12.57;9.77;;;12.50;99.90;;;;;;6179523;23;20216;-68
2021/11/20 07:25:03;;;;;;;13.70;9.80;;;12.40;99.90;;;;;;6179579;23;20520;-68
2021/11/20 07:27:28;;;;;;;18.23;10.10;;;12.50;99.90;;;;;;6178854;23;20177;-68
2021/11/20 07:29:54;;;;;;;13.83;10.80;;;12.40;99.90;;;;;;6177713;23;20540;-68
2021/11/20 07:32:20;;;;;;;16.23;10.07;;;12.40;99.90;;;;;;6179499;23;20200;-69
2021/11/20 07:34:45;;;;;;;15.00;10.40;;;12.40;99.90;;;;;;6178971;23;20149;-69
2021/11/20 07:37:11;;;;;;;14.27;9.57;;;12.30;99.90;;;;;;6177299;23;20156;-69
2021/11/20 07:39:37;;;;;;;12.47;9.83;;;12.40;99.90;;;;;;6177508;23;20153;-69
2021/11/20 07:42:05;;;;;;;16.30;10.77;;;12.40;99.90;;;;;;6175003;23;20682;-69
2021/11/20 07:44:31;;;;;;;14.60;8.73;;;12.30;99.90;;;;;;6179788;23;20536;-69
2021/11/20 07:46:56;;;;;;;14.00;9.50;;;12.40;99.90;;;;;;6175263;23;20561;-69
2021/11/20 07:49:22;;;;;;;34.17;24.23;;;12.40;99.90;;;;;;6177909;23;20572;-69
2021/11/20 07:51:48;;;;;;;119.73;70.70;;;12.30;99.90;;;;;;6204488;23;20304;-68
2021/11/20 07:54:14;;;;;;;13.40;9.47;;;12.40;99.90;;;;;;6180678;23;20161;-69
2021/11/20 07:56:42;;;;;;;11.90;9.30;;;12.30;99.90;;;;;;6178462;23;20161;-69
2021/11/20 07:59:11;;;;;;;14.77;9.70;;;12.30;99.90;;;;;;6178191;23;20176;-69
2021/11/20 08:01:37;;;;;;;14.10;9.50;;;12.30;99.90;;;;;;6174925;23;20654;-75
2021/11/20 08:04:03;;;;;;;14.10;10.30;;;12.40;99.90;;;;;;6181686;23;20533;-68
2021/11/20 08:06:30;;;;;;;13.27;9.70;;;12.40;99.90;;;;;;6182033;23;20567;-68
2021/11/20 08:08:57;;;;;;;13.63;10.47;;;12.40;99.90;;;;;;6178416;23;20899;-68
2021/11/20 08:11:23;;;;;;;11.27;10.07;;;12.40;99.90;;;;;;6181070;23;20690;-67
2021/11/20 08:13:48;;;;;;;16.67;10.47;;;12.40;99.90;;;;;;6181874;23;21086;-67
2021/11/20 08:16:16;;;;;;;14.17;10.97;;;12.40;99.90;;;;;;6179965;23;20157;-67
2021/11/20 08:18:41;;;;;;;16.63;10.97;;;12.40;99.90;;;;;;6204360;23;20161;-67
2021/11/20 08:21:07;;;;;;;13.90;10.00;;;12.50;99.90;;;;;;6177186;23;20936;-67
2021/11/20 08:23:33;;;;;;;15.23;10.23;;;12.40;99.90;;;;;;6180952;23;20173;-66
2021/11/20 08:25:59;;;;;;;14.47;10.80;;;12.40;99.90;;;;;;6177583;23;20160;-65
2021/11/20 08:28:26;;;;;;;14.30;10.53;;;12.40;99.90;;;;;;6205695;23;20579;-68
2021/11/20 08:30:53;;;;;;;16.17;11.30;;;12.50;99.90;;;;;;6174934;23;21178;-68
2021/11/20 08:33:19;;;;;;;16.30;10.60;;;12.50;99.90;;;;;;6175558;23;20599;-67
2021/11/20 08:35:46;;;;;;;13.53;10.77;;;12.50;99.90;;;;;;6177986;23;20623;-68
2021/11/20 08:38:13;;;;;;;13.90;11.50;;;12.50;99.90;;;;;;6180026;23;20635;-67
2021/11/20 08:40:42;;;;;;;15.17;11.67;;;12.50;99.90;;;;;;6178168;23;20531;-68
2021/11/20 08:43:08;;;;;;;17.27;10.73;;;12.50;99.90;;;;;;6178378;23;20606;-67
2021/11/20 08:45:42;;;;;;;12.67;10.20;;;12.50;99.90;;;;;;6180655;23;20532;-66
2021/11/20 08:48:09;;;;;;;15.00;10.80;;;12.50;99.90;;;;;;6181123;23;20241;-69
2021/11/20 08:50:39;;;;;;;16.40;11.37;;;12.50;99.90;;;;;;6177846;23;20923;-66
2021/11/20 08:53:06;;;;;;;13.67;10.90;;;12.50;99.90;;;;;;6200320;23;20662;-66
2021/11/20 08:55:33;;;;;;;13.13;10.27;;;12.50;99.90;;;;;;6180093;23;21095;-67
2021/11/20 08:57:59;;;;;;;13.77;9.27;;;12.50;99.90;;;;;;6175051;23;20561;-68
2021/11/20 09:00:33;;;;;;;13.73;9.73;;;12.50;99.90;;;;;;6177746;23;20544;-67
2021/11/20 09:03:32;;;;;;;11.93;9.30;;;12.60;99.90;;;;;;6170735;23;20609;-67
2021/11/20 09:06:08;;;;;;;13.13;9.20;;;12.60;99.90;;;;;;6178029;23;20871;-66
2021/11/20 09:08:55;;;;;;;12.27;9.40;;;12.60;99.90;;;;;;6180349;23;20525;-67
2021/11/20 09:11:24;;;;;;;13.53;8.63;;;12.60;99.90;;;;;;6180190;23;20614;-68
2021/11/20 09:14:15;;;;;;;11.30;8.67;;;12.60;99.90;;;;;;6179185;23;21077;-68
2021/11/20 09:16:42;;;;;;;9.50;8.33;;;12.70;99.90;;;;;;6181759;23;20505;-67
2021/11/20 09:19:09;;;;;;;9.73;8.73;;;12.60;99.90;;;;;;6177586;23;20840;-67
2021/11/20 09:21:36;;;;;;;10.40;8.40;;;12.70;99.90;;;;;;6179813;23;21169;-67
2021/11/20 09:24:02;;;;;;;11.53;7.57;;;12.70;99.90;;;;;;6179752;23;20564;-67
2021/11/20 09:26:30;;;;;;;10.07;7.17;;;12.70;99.90;;;;;;6181727;23;20536;-67
2021/11/20 09:28:57;;;;;;;10.00;7.17;;;12.70;99.90;;;;;;6180633;23;20616;-67
2021/11/20 09:31:24;;;;;;;10.00;7.43;;;12.80;99.90;;;;;;6181439;23;20588;-68
2021/11/20 09:33:50;;;;;;;11.17;6.97;;;12.80;99.90;;;;;;6182555;23;20533;-68
2021/11/20 09:36:16;;;;;;;8.50;6.90;;;12.80;99.90;;;;;;6180985;23;20615;-68
2021/11/20 09:38:41;;;;;;;8.20;7.10;;;12.80;99.90;;;;;;6205612;23;20500;-67
2021/11/20 09:41:15;;;;;;;10.00;6.50;;;12.80;99.90;;;;;;6180887;23;20574;-68
2021/11/20 09:43:45;;;;;;;8.10;6.37;;;12.80;99.90;;;;;;6181999;23;20137;-67
2021/11/20 09:46:26;;;;;;;8.90;6.40;;;12.90;99.90;;;;;;6181901;23;21022;-68
2021/11/20 09:49:17;;;;;;;7.97;6.77;;;12.90;99.90;;;;;;6180372;23;20578;-68
2021/11/20 09:51:47;;;;;;;9.00;6.57;;;12.80;99.90;;;;;;6179119;23;20612;-68
2021/11/20 09:54:22;;;;;;;7.30;6.60;;;12.80;99.90;;;;;;6181419;23;20539;-68
2021/11/20 09:56:58;;;;;;;7.07;6.47;;;12.70;99.90;;;;;;6181878;23;20532;-67
2021/11/20 09:59:28;;;;;;;8.27;7.47;;;12.70;99.90;;;;;;6180162;23;21057;-68
2021/11/20 10:02:28;;;;;;;8.70;6.60;;;12.70;99.90;;;;;;6179557;23;20608;-68
2021/11/20 10:05:19;;;;;;;9.00;6.30;;;12.80;99.90;;;;;;6180381;23;20559;-67
2021/11/20 10:08:10;;;;;;;6.20;5.50;;;12.80;99.90;;;;;;6179363;23;20572;-67
2021/11/20 10:10:45;;;;;;;6.53;5.87;;;12.90;99.90;;;;;;6179334;23;20607;-67
2021/11/20 10:13:17;;;;;;;6.87;5.63;;;12.90;99.90;;;;;;6179847;23;20595;-67
2021/11/20 10:15:55;;;;;;;6.83;6.13;;;12.90;99.90;;;;;;6180240;23;20489;-68
2021/11/20 10:18:47;;;;;;;6.87;6.30;;;12.90;99.90;;;;;;6180326;23;21100;-68
2021/11/20 10:21:33;;;;;;;8.13;7.03;;;12.90;99.90;;;;;;6179372;23;21097;-68
2021/11/20 10:24:07;;;;;;;8.90;6.50;;;12.90;99.90;;;;;;6179305;23;20568;-69
2021/11/20 10:26:44;;;;;;;8.23;5.90;;;12.90;99.90;;;;;;6179940;23;20600;-68
2021/11/20 10:29:34;;;;;;;6.80;6.10;;;12.90;99.90;;;;;;6179175;23;21066;-67
2021/11/20 10:32:06;;;;;;;8.93;6.73;;;13.00;99.90;;;;;;6177415;23;20703;-67
2021/11/20 10:34:56;;;;;;;7.97;6.90;;;13.00;99.90;;;;;;6179764;23;20946;-67
2021/11/20 10:37:40;;;;;;;8.23;6.40;;;13.00;99.90;;;;;;6178760;23;20520;-68
2021/11/20 10:40:28;;;;;;;8.63;6.80;;;13.00;99.90;;;;;;6180798;23;20513;-68
2021/11/20 10:43:14;;;;;;;7.30;6.10;;;13.10;99.90;;;;;;6179084;23;20604;-68
2021/11/20 10:45:52;;;;;;;8.23;6.30;;;13.10;99.90;;;;;;6180711;23;20519;-67
2021/11/20 10:48:42;;;;;;;7.33;6.63;;;13.10;99.90;;;;;;6177857;23;20639;-67
2021/11/20 10:51:21;;;;;;;6.83;6.13;;;13.10;99.90;;;;;;6178031;23;20624;-67
2021/11/20 10:53:52;;;;;;;8.27;6.50;;;13.00;99.90;;;;;;6178538;23;20500;-67
2021/11/20 10:56:36;;;;;;;8.13;6.60;;;13.10;99.90;;;;;;6179670;23;20620;-67
2021/11/20 10:59:24;;;;;;;8.00;7.10;;;13.00;99.90;;;;;;6179152;23;20527;-67
2021/11/20 11:01:49;;;;;;;8.30;7.20;;;13.10;99.90;;;;;;6130812;23;1114353;-66
2021/11/20 11:04:30;;;;;;;9.00;6.67;;;13.00;99.90;;;;;;6179820;23;20164;-67
2021/11/20 11:07:30;;;;;;;9.60;8.23;;;12.90;99.90;;;;;;6179397;23;20176;-67
2021/11/20 11:10:01;;;;;;;7.80;7.00;;;12.90;99.90;;;;;;6180090;23;20536;-67
2021/11/20 11:12:30;;;;;;;7.53;6.83;;;12.90;99.90;;;;;;6179820;23;20658;-67
2021/11/20 11:15:16;;;;;;;7.60;6.90;;;12.80;99.90;;;;;;6181132;23;20639;-68
2021/11/20 11:18:20;;;;;;;8.07;7.27;;;12.90;99.90;;;;;;6181261;23;20544;-67
2021/11/20 11:21:20;;;;;;;8.30;6.87;;;12.80;99.90;;;;;;6179899;23;20496;-67
2021/11/20 11:24:24;;;;;;;8.30;7.50;;;12.80;99.90;;;;;;6150405;23;20590;-67
2021/11/20 11:27:04;;;;;;;8.23;7.43;;;12.80;99.90;;;;;;6184609;23;20520;-67
2021/11/20 11:29:36;;;;;;;9.17;8.20;;;12.90;99.90;;;;;;6181693;23;20544;-66
2021/11/20 11:32:03;;;;;;;9.37;7.97;;;12.90;99.90;;;;;;6183978;23;21256;-67
2021/11/20 11:34:36;;;;;;;10.00;8.07;;;12.90;99.90;;;;;;6183203;23;20551;-67
2021/11/20 11:37:20;;;;;;;9.57;7.50;;;12.90;99.90;;;;;;6183325;23;20564;-67
2021/11/20 11:39:57;;;;;;;9.70;7.90;;;12.90;99.90;;;;;;6184103;23;20508;-68
2021/11/20 11:42:44;;;;;;;8.03;7.23;;;12.90;99.90;;;;;;6183373;23;20626;-66
2021/11/20 11:45:46;;;;;;;8.03;6.87;;;12.80;99.90;;;;;;6182039;23;20610;-67
2021/11/20 11:48:38;;;;;;;8.83;7.60;;;12.80;99.90;;;;;;6181422;23;20569;-67
2021/11/20 11:51:24;;;;;;;8.93;8.07;;;12.90;99.90;;;;;;6183532;23;20707;-67
2021/11/20 11:54:00;;;;;;;8.90;7.73;;;12.90;99.90;;;;;;6180981;23;20555;-67
2021/11/20 11:56:29;;;;;;;9.60;8.70;;;12.90;99.90;;;;;;6182862;23;20552;-67
2021/11/20 11:59:21;;;;;;;9.60;8.57;;;12.80;99.90;;;;;;6184743;23;20547;-67
2021/11/20 12:01:52;;;;;;;9.80;8.90;;;12.90;99.90;;;;;;6183463;23;20610;-67
2021/11/20 12:04:40;;;;;;;9.87;8.87;;;12.90;99.90;;;;;;6183922;23;20537;-67
2021/11/20 12:07:24;;;;;;;9.67;8.77;;;12.80;99.90;;;;;;6184593;23;20585;-67
2021/11/20 12:09:54;;;;;;;10.03;9.03;;;12.80;99.90;;;;;;6183337;23;20520;-67
2021/11/20 12:12:32;;;;;;;10.77;9.77;;;12.80;99.90;;;;;;6183056;23;20611;-67
2021/11/20 12:15:19;;;;;;;10.70;9.70;;;12.80;99.90;;;;;;6183786;23;20587;-67
2021/11/20 12:18:09;;;;;;;11.47;10.37;;;12.80;99.90;;;;;;6183806;23;20504;-67
2021/11/20 12:20:45;;;;;;;11.60;10.50;;;12.70;99.90;;;;;;6183045;23;20521;-66
2021/11/20 12:23:47;;;;;;;13.17;11.80;;;12.80;99.90;;;;;;6184102;23;20651;-68
2021/11/20 12:26:28;;;;;;;11.20;9.87;;;12.70;99.90;;;;;;6182739;23;21460;-67
2021/11/20 12:28:55;;;;;;;12.13;10.80;;;12.70;99.90;;;;;;6184060;23;20817;-67
2021/11/20 12:31:23;;;;;;;11.13;9.87;;;12.70;99.90;;;;;;6183565;23;20607;-67
2021/11/20 12:33:56;;;;;;;11.03;9.83;;;12.80;99.90;;;;;;6182247;23;20556;-67
2021/11/20 12:36:54;;;;;;;11.43;10.33;;;12.80;99.90;;;;;;6181670;23;20564;-67
2021/11/20 12:39:38;;;;;;;11.40;10.20;;;12.90;99.90;;;;;;6179551;23;20564;-67
2021/11/20 12:42:22;;;;;;;12.77;11.47;;;12.80;99.90;;;;;;6181086;23;20960;-67
2021/11/20 12:45:02;;;;;;;12.50;11.20;;;12.70;99.90;;;;;;6181794;23;20500;-66
2021/11/20 12:47:54;;;;;;;12.47;11.13;;;12.70;99.90;;;;;;6180866;23;20568;-67
2021/11/20 12:50:48;;;;;;;12.80;11.50;;;12.70;99.90;;;;;;6182261;23;20492;-67
2021/11/20 12:53:20;;;;;;;14.73;13.13;;;12.70;99.90;;;;;;6181493;23;20579;-68
2021/11/20 12:56:00;;;;;;;13.60;11.87;;;12.70;99.90;;;;;;6181265;23;20533;-67
2021/11/20 12:58:42;;;;;;;13.20;11.93;;;12.70;99.90;;;;;;6181599;23;20501;-67
2021/11/20 13:01:11;;;;;;;14.23;12.70;;;12.70;99.90;;;;;;6205273;23;20665;-67
2021/11/20 13:03:40;;;;;;;15.50;13.10;;;12.70;99.90;;;;;;6181594;23;20845;-67